sensor_id;sensor_type;location;lat;lon;timestamp;P1;durP1;ratioP1;P2;durP2;ratioP2
10309;SDS011;5200;43.236;27.986;2022-12-15T00:00:50;7.90;;;2.53;;
10309;SDS011;5200;43.236;27.986;2022-12-15T00:03:35;4.30;;;2.28;;
10309;SDS011;5200;43.236;27.986;2022-12-15T00:06:19;4.38;;;2.55;;
10309;SDS011;5200;43.236;27.986;2022-12-15T00:09:04;7.78;;;2.90;;
10309;SDS011;5200;43.236;27.986;2022-12-15T00:11:48;8.02;;;2.47;;
10309;SDS011;5200;43.236;27.986;2022-12-15T00:14:33;4.18;;;2.33;;
10309;SDS011;5200;43.236;27.986;2022-12-15T00:17:19;4.88;;;2.38;;
10309;SDS011;5200;43.236;27.986;2022-12-15T00:20:03;8.10;;;2.42;;
10309;SDS011;5200;43.236;27.986;2022-12-15T00:22:48;3.35;;;2.10;;
10309;SDS011;5200;43.236;27.986;2022-12-15T00:25:32;4.97;;;2.58;;
10309;SDS011;5200;43.236;27.986;2022-12-15T00:28:16;7.63;;;2.80;;
10309;SDS011;5200;43.236;27.986;2022-12-15T00:31:00;7.03;;;2.75;;
10309;SDS011;5200;43.236;27.986;2022-12-15T00:33:46;4.90;;;3.00;;
10309;SDS011;5200;43.236;27.986;2022-12-15T00:36:31;6.20;;;3.03;;
10309;SDS011;5200;43.236;27.986;2022-12-15T00:39:15;8.25;;;4.07;;
10309;SDS011;5200;43.236;27.986;2022-12-15T00:41:42;6.35;;;3.70;;
10309;SDS011;5200;43.236;27.986;2022-12-15T00:44:09;4.97;;;3.00;;
10309;SDS011;5200;43.236;27.986;2022-12-15T00:46:36;11.60;;;3.60;;
10309;SDS011;5200;43.236;27.986;2022-12-15T00:49:22;7.00;;;3.40;;
10309;SDS011;5200;43.236;27.986;2022-12-15T00:52:22;11.40;;;4.15;;
10309;SDS011;5200;43.236;27.986;2022-12-15T00:55:06;5.50;;;3.70;;
10309;SDS011;5200;43.236;27.986;2022-12-15T00:57:52;7.38;;;3.47;;
10309;SDS011;5200;43.236;27.986;2022-12-15T01:00:36;3.50;;;2.75;;
10309;SDS011;5200;43.236;27.986;2022-12-15T01:03:21;4.25;;;3.40;;
10309;SDS011;5200;43.236;27.986;2022-12-15T01:06:08;9.77;;;4.15;;
10309;SDS011;5200;43.236;27.986;2022-12-15T01:08:53;8.43;;;3.63;;
10309;SDS011;5200;43.236;27.986;2022-12-15T01:11:38;8.00;;;4.65;;
10309;SDS011;5200;43.236;27.986;2022-12-15T01:14:22;9.80;;;2.83;;
10309;SDS011;5200;43.236;27.986;2022-12-15T01:17:07;9.13;;;3.10;;
10309;SDS011;5200;43.236;27.986;2022-12-15T01:19:51;9.40;;;3.80;;
10309;SDS011;5200;43.236;27.986;2022-12-15T01:22:37;9.95;;;3.67;;
10309;SDS011;5200;43.236;27.986;2022-12-15T01:25:05;14.90;;;3.33;;
10309;SDS011;5200;43.236;27.986;2022-12-15T01:27:33;9.25;;;3.63;;
10309;SDS011;5200;43.236;27.986;2022-12-15T01:30:01;6.07;;;3.28;;
10309;SDS011;5200;43.236;27.986;2022-12-15T01:32:27;7.50;;;3.80;;
10309;SDS011;5200;43.236;27.986;2022-12-15T01:34:54;9.73;;;3.55;;
10309;SDS011;5200;43.236;27.986;2022-12-15T01:37:21;4.60;;;2.78;;
10309;SDS011;5200;43.236;27.986;2022-12-15T01:39:49;8.60;;;3.42;;
10309;SDS011;5200;43.236;27.986;2022-12-15T01:42:34;5.63;;;3.25;;
10309;SDS011;5200;43.236;27.986;2022-12-15T01:48:22;6.60;;;3.20;;
10309;SDS011;5200;43.236;27.986;2022-12-15T01:50:55;7.93;;;2.78;;
10309;SDS011;5200;43.236;27.986;2022-12-15T01:53:26;8.45;;;3.03;;
10309;SDS011;5200;43.236;27.986;2022-12-15T01:55:58;4.18;;;2.80;;
10309;SDS011;5200;43.236;27.986;2022-12-15T01:58:26;7.45;;;3.58;;
10309;SDS011;5200;43.236;27.986;2022-12-15T02:00:53;15.07;;;3.78;;
10309;SDS011;5200;43.236;27.986;2022-12-15T02:03:20;8.48;;;2.67;;
10309;SDS011;5200;43.236;27.986;2022-12-15T02:05:48;5.82;;;2.72;;
10309;SDS011;5200;43.236;27.986;2022-12-15T02:08:15;6.05;;;2.78;;
10309;SDS011;5200;43.236;27.986;2022-12-15T02:10:53;7.35;;;2.55;;
10309;SDS011;5200;43.236;27.986;2022-12-15T02:13:34;7.80;;;2.50;;
10309;SDS011;5200;43.236;27.986;2022-12-15T02:16:10;6.65;;;2.78;;
10309;SDS011;5200;43.236;27.986;2022-12-15T02:18:47;9.95;;;3.35;;
10309;SDS011;5200;43.236;27.986;2022-12-15T02:21:28;11.13;;;2.55;;
10309;SDS011;5200;43.236;27.986;2022-12-15T02:24:07;9.18;;;2.80;;
10309;SDS011;5200;43.236;27.986;2022-12-15T02:26:58;8.27;;;3.10;;
10309;SDS011;5200;43.236;27.986;2022-12-15T02:32:42;11.55;;;3.15;;
10309;SDS011;5200;43.236;27.986;2022-12-15T02:35:14;6.32;;;3.45;;
10309;SDS011;5200;43.236;27.986;2022-12-15T02:37:44;9.98;;;3.40;;
10309;SDS011;5200;43.236;27.986;2022-12-15T02:40:12;7.38;;;3.58;;
10309;SDS011;5200;43.236;27.986;2022-12-15T02:42:41;13.38;;;2.80;;
10309;SDS011;5200;43.236;27.986;2022-12-15T02:45:11;12.30;;;4.18;;
10309;SDS011;5200;43.236;27.986;2022-12-15T02:47:42;4.57;;;2.85;;
10309;SDS011;5200;43.236;27.986;2022-12-15T02:53:20;9.73;;;3.72;;
10309;SDS011;5200;43.236;27.986;2022-12-15T02:56:02;7.82;;;3.33;;
10309;SDS011;5200;43.236;27.986;2022-12-15T02:58:36;12.85;;;3.60;;
10309;SDS011;5200;43.236;27.986;2022-12-15T03:01:15;12.07;;;3.58;;
10309;SDS011;5200;43.236;27.986;2022-12-15T03:03:47;10.75;;;4.35;;
10309;SDS011;5200;43.236;27.986;2022-12-15T03:06:17;16.75;;;4.07;;
10309;SDS011;5200;43.236;27.986;2022-12-15T03:08:45;9.73;;;3.33;;
10309;SDS011;5200;43.236;27.986;2022-12-15T03:11:11;11.35;;;4.00;;
10309;SDS011;5200;43.236;27.986;2022-12-15T03:13:38;14.20;;;4.78;;
10309;SDS011;5200;43.236;27.986;2022-12-15T03:16:05;9.80;;;4.07;;
10309;SDS011;5200;43.236;27.986;2022-12-15T03:18:33;9.95;;;4.72;;
10309;SDS011;5200;43.236;27.986;2022-12-15T03:21:00;14.38;;;5.25;;
10309;SDS011;5200;43.236;27.986;2022-12-15T03:23:27;14.07;;;5.20;;
10309;SDS011;5200;43.236;27.986;2022-12-15T03:25:54;9.45;;;4.65;;
10309;SDS011;5200;43.236;27.986;2022-12-15T03:28:21;18.95;;;5.68;;
10309;SDS011;5200;43.236;27.986;2022-12-15T03:30:48;10.30;;;5.43;;
10309;SDS011;5200;43.236;27.986;2022-12-15T03:33:15;15.95;;;5.75;;
10309;SDS011;5200;43.236;27.986;2022-12-15T03:35:43;18.80;;;7.28;;
10309;SDS011;5200;43.236;27.986;2022-12-15T03:38:10;13.80;;;7.10;;
10309;SDS011;5200;43.236;27.986;2022-12-15T03:40:37;13.05;;;6.63;;
10309;SDS011;5200;43.236;27.986;2022-12-15T03:43:04;10.80;;;7.20;;
10309;SDS011;5200;43.236;27.986;2022-12-15T03:45:31;12.68;;;7.40;;
10309;SDS011;5200;43.236;27.986;2022-12-15T03:47:57;15.43;;;7.60;;
10309;SDS011;5200;43.236;27.986;2022-12-15T03:50:25;17.35;;;7.68;;
10309;SDS011;5200;43.236;27.986;2022-12-15T03:52:55;13.57;;;7.40;;
10309;SDS011;5200;43.236;27.986;2022-12-15T03:55:23;14.20;;;8.02;;
10309;SDS011;5200;43.236;27.986;2022-12-15T03:57:50;23.75;;;11.48;;
10309;SDS011;5200;43.236;27.986;2022-12-15T04:00:18;19.80;;;9.27;;
10309;SDS011;5200;43.236;27.986;2022-12-15T04:02:46;13.63;;;8.88;;
10309;SDS011;5200;43.236;27.986;2022-12-15T04:05:14;12.15;;;7.05;;
10309;SDS011;5200;43.236;27.986;2022-12-15T04:07:43;19.60;;;8.15;;
10309;SDS011;5200;43.236;27.986;2022-12-15T04:10:11;16.17;;;8.20;;
10309;SDS011;5200;43.236;27.986;2022-12-15T04:12:38;16.38;;;8.93;;
10309;SDS011;5200;43.236;27.986;2022-12-15T04:15:06;13.60;;;9.32;;
10309;SDS011;5200;43.236;27.986;2022-12-15T04:17:34;16.65;;;9.25;;
10309;SDS011;5200;43.236;27.986;2022-12-15T04:20:01;23.75;;;11.63;;
10309;SDS011;5200;43.236;27.986;2022-12-15T04:22:35;24.10;;;10.90;;
10309;SDS011;5200;43.236;27.986;2022-12-15T04:25:03;20.40;;;11.40;;
10309;SDS011;5200;43.236;27.986;2022-12-15T04:27:50;20.50;;;10.93;;
10309;SDS011;5200;43.236;27.986;2022-12-15T04:30:34;19.38;;;11.40;;
10309;SDS011;5200;43.236;27.986;2022-12-15T04:33:19;16.77;;;10.77;;
10309;SDS011;5200;43.236;27.986;2022-12-15T04:36:04;20.23;;;10.65;;
10309;SDS011;5200;43.236;27.986;2022-12-15T04:38:50;17.38;;;11.00;;
10309;SDS011;5200;43.236;27.986;2022-12-15T04:41:34;23.23;;;12.13;;
10309;SDS011;5200;43.236;27.986;2022-12-15T04:44:21;24.95;;;13.05;;
10309;SDS011;5200;43.236;27.986;2022-12-15T04:47:05;23.83;;;14.57;;
10309;SDS011;5200;43.236;27.986;2022-12-15T04:49:50;23.75;;;13.88;;
10309;SDS011;5200;43.236;27.986;2022-12-15T04:52:34;25.92;;;14.27;;
10309;SDS011;5200;43.236;27.986;2022-12-15T04:55:18;21.05;;;14.40;;
10309;SDS011;5200;43.236;27.986;2022-12-15T04:58:03;19.95;;;11.15;;
10309;SDS011;5200;43.236;27.986;2022-12-15T05:00:50;19.70;;;11.68;;
10309;SDS011;5200;43.236;27.986;2022-12-15T05:03:34;14.70;;;10.43;;
10309;SDS011;5200;43.236;27.986;2022-12-15T05:06:18;19.55;;;11.35;;
10309;SDS011;5200;43.236;27.986;2022-12-15T05:09:03;14.35;;;11.32;;
10309;SDS011;5200;43.236;27.986;2022-12-15T05:11:47;20.60;;;10.90;;
10309;SDS011;5200;43.236;27.986;2022-12-15T05:14:31;22.17;;;12.68;;
10309;SDS011;5200;43.236;27.986;2022-12-15T05:17:17;21.98;;;12.32;;
10309;SDS011;5200;43.236;27.986;2022-12-15T05:20:02;21.90;;;12.25;;
10309;SDS011;5200;43.236;27.986;2022-12-15T05:22:51;16.98;;;12.90;;
10309;SDS011;5200;43.236;27.986;2022-12-15T05:25:35;20.15;;;11.45;;
10309;SDS011;5200;43.236;27.986;2022-12-15T05:28:20;15.35;;;10.70;;
10309;SDS011;5200;43.236;27.986;2022-12-15T05:31:05;14.88;;;11.15;;
10309;SDS011;5200;43.236;27.986;2022-12-15T05:33:51;57.28;;;36.45;;
10309;SDS011;5200;43.236;27.986;2022-12-15T05:36:18;22.45;;;13.68;;
10309;SDS011;5200;43.236;27.986;2022-12-15T05:38:46;22.63;;;11.38;;
10309;SDS011;5200;43.236;27.986;2022-12-15T05:41:14;23.05;;;13.88;;
10309;SDS011;5200;43.236;27.986;2022-12-15T05:43:41;17.08;;;12.25;;
10309;SDS011;5200;43.236;27.986;2022-12-15T05:46:07;18.58;;;12.13;;
10309;SDS011;5200;43.236;27.986;2022-12-15T05:48:34;17.08;;;11.55;;
10309;SDS011;5200;43.236;27.986;2022-12-15T05:51:03;14.85;;;11.23;;
10309;SDS011;5200;43.236;27.986;2022-12-15T05:53:31;19.65;;;11.88;;
10309;SDS011;5200;43.236;27.986;2022-12-15T05:56:01;20.48;;;11.63;;
10309;SDS011;5200;43.236;27.986;2022-12-15T05:58:29;16.55;;;11.90;;
10309;SDS011;5200;43.236;27.986;2022-12-15T06:01:01;18.25;;;12.07;;
10309;SDS011;5200;43.236;27.986;2022-12-15T06:03:29;20.27;;;13.38;;
10309;SDS011;5200;43.236;27.986;2022-12-15T06:05:56;22.13;;;13.60;;
10309;SDS011;5200;43.236;27.986;2022-12-15T06:08:25;19.45;;;13.63;;
10309;SDS011;5200;43.236;27.986;2022-12-15T06:10:52;26.42;;;19.02;;
10309;SDS011;5200;43.236;27.986;2022-12-15T06:13:20;17.30;;;12.90;;
10309;SDS011;5200;43.236;27.986;2022-12-15T06:15:53;19.35;;;14.60;;
10309;SDS011;5200;43.236;27.986;2022-12-15T06:18:23;21.98;;;13.75;;
10309;SDS011;5200;43.236;27.986;2022-12-15T06:20:57;21.77;;;14.23;;
10309;SDS011;5200;43.236;27.986;2022-12-15T06:23:26;18.50;;;13.40;;
10309;SDS011;5200;43.236;27.986;2022-12-15T06:25:53;18.95;;;14.05;;
10309;SDS011;5200;43.236;27.986;2022-12-15T06:28:20;25.48;;;19.92;;
10309;SDS011;5200;43.236;27.986;2022-12-15T06:30:49;21.55;;;13.32;;
10309;SDS011;5200;43.236;27.986;2022-12-15T06:33:18;20.30;;;13.13;;
10309;SDS011;5200;43.236;27.986;2022-12-15T06:35:45;23.50;;;14.45;;
10309;SDS011;5200;43.236;27.986;2022-12-15T06:38:13;28.40;;;17.90;;
10309;SDS011;5200;43.236;27.986;2022-12-15T06:40:41;27.77;;;20.67;;
10309;SDS011;5200;43.236;27.986;2022-12-15T06:43:08;26.00;;;16.83;;
10309;SDS011;5200;43.236;27.986;2022-12-15T06:45:35;19.63;;;14.57;;
10309;SDS011;5200;43.236;27.986;2022-12-15T06:48:02;21.70;;;14.75;;
10309;SDS011;5200;43.236;27.986;2022-12-15T06:50:29;20.73;;;15.82;;
10309;SDS011;5200;43.236;27.986;2022-12-15T06:52:57;18.58;;;14.93;;
10309;SDS011;5200;43.236;27.986;2022-12-15T06:55:24;16.73;;;13.10;;
10309;SDS011;5200;43.236;27.986;2022-12-15T06:57:53;23.42;;;17.02;;
10309;SDS011;5200;43.236;27.986;2022-12-15T07:00:20;19.60;;;14.38;;
10309;SDS011;5200;43.236;27.986;2022-12-15T07:02:47;19.38;;;14.88;;
10309;SDS011;5200;43.236;27.986;2022-12-15T07:05:14;36.17;;;32.22;;
10309;SDS011;5200;43.236;27.986;2022-12-15T07:07:40;17.90;;;14.68;;
10309;SDS011;5200;43.236;27.986;2022-12-15T07:10:08;35.63;;;31.90;;
10309;SDS011;5200;43.236;27.986;2022-12-15T07:12:36;43.85;;;36.38;;
10309;SDS011;5200;43.236;27.986;2022-12-15T07:15:05;33.10;;;25.52;;
10309;SDS011;5200;43.236;27.986;2022-12-15T07:17:33;40.67;;;35.83;;
10309;SDS011;5200;43.236;27.986;2022-12-15T07:20:01;36.40;;;31.10;;
10309;SDS011;5200;43.236;27.986;2022-12-15T07:22:28;33.97;;;28.42;;
10309;SDS011;5200;43.236;27.986;2022-12-15T07:24:55;34.20;;;25.25;;
10309;SDS011;5200;43.236;27.986;2022-12-15T07:27:22;42.70;;;34.55;;
10309;SDS011;5200;43.236;27.986;2022-12-15T07:29:49;26.08;;;20.63;;
10309;SDS011;5200;43.236;27.986;2022-12-15T07:32:17;24.70;;;18.15;;
10309;SDS011;5200;43.236;27.986;2022-12-15T07:34:45;23.20;;;15.85;;
10309;SDS011;5200;43.236;27.986;2022-12-15T07:37:12;24.17;;;18.30;;
10309;SDS011;5200;43.236;27.986;2022-12-15T07:39:40;23.92;;;17.45;;
10309;SDS011;5200;43.236;27.986;2022-12-15T07:42:07;19.67;;;15.25;;
10309;SDS011;5200;43.236;27.986;2022-12-15T07:44:34;20.52;;;15.23;;
10309;SDS011;5200;43.236;27.986;2022-12-15T07:47:01;26.77;;;15.65;;
10309;SDS011;5200;43.236;27.986;2022-12-15T07:49:29;27.55;;;18.50;;
10309;SDS011;5200;43.236;27.986;2022-12-15T07:51:56;22.15;;;14.80;;
10309;SDS011;5200;43.236;27.986;2022-12-15T07:54:23;19.80;;;15.10;;
10309;SDS011;5200;43.236;27.986;2022-12-15T07:56:49;21.77;;;14.18;;
10309;SDS011;5200;43.236;27.986;2022-12-15T07:59:17;19.52;;;14.57;;
10309;SDS011;5200;43.236;27.986;2022-12-15T08:01:44;21.90;;;14.95;;
10309;SDS011;5200;43.236;27.986;2022-12-15T08:04:11;23.73;;;17.42;;
10309;SDS011;5200;43.236;27.986;2022-12-15T08:06:40;23.75;;;15.35;;
10309;SDS011;5200;43.236;27.986;2022-12-15T08:09:07;19.17;;;12.90;;
10309;SDS011;5200;43.236;27.986;2022-12-15T08:11:34;16.42;;;12.90;;
10309;SDS011;5200;43.236;27.986;2022-12-15T08:14:01;18.08;;;14.57;;
10309;SDS011;5200;43.236;27.986;2022-12-15T08:16:28;20.75;;;14.75;;
10309;SDS011;5200;43.236;27.986;2022-12-15T08:18:55;20.95;;;15.05;;
10309;SDS011;5200;43.236;27.986;2022-12-15T08:21:22;18.52;;;14.40;;
10309;SDS011;5200;43.236;27.986;2022-12-15T08:23:50;21.83;;;15.32;;
10309;SDS011;5200;43.236;27.986;2022-12-15T08:26:17;18.98;;;14.00;;
10309;SDS011;5200;43.236;27.986;2022-12-15T08:28:45;19.50;;;14.55;;
10309;SDS011;5200;43.236;27.986;2022-12-15T08:31:13;30.27;;;19.80;;
10309;SDS011;5200;43.236;27.986;2022-12-15T08:33:41;21.17;;;15.50;;
10309;SDS011;5200;43.236;27.986;2022-12-15T08:36:09;19.30;;;14.27;;
10309;SDS011;5200;43.236;27.986;2022-12-15T08:38:38;19.42;;;15.23;;
10309;SDS011;5200;43.236;27.986;2022-12-15T08:41:07;19.92;;;14.15;;
10309;SDS011;5200;43.236;27.986;2022-12-15T08:43:36;24.45;;;16.42;;
10309;SDS011;5200;43.236;27.986;2022-12-15T08:46:03;18.98;;;15.80;;
10309;SDS011;5200;43.236;27.986;2022-12-15T08:48:32;23.95;;;17.38;;
10309;SDS011;5200;43.236;27.986;2022-12-15T08:50:59;23.88;;;16.83;;
10309;SDS011;5200;43.236;27.986;2022-12-15T08:53:27;22.27;;;16.38;;
10309;SDS011;5200;43.236;27.986;2022-12-15T08:55:54;20.27;;;15.77;;
10309;SDS011;5200;43.236;27.986;2022-12-15T08:58:22;23.70;;;16.55;;
10309;SDS011;5200;43.236;27.986;2022-12-15T09:00:49;22.42;;;16.17;;
10309;SDS011;5200;43.236;27.986;2022-12-15T09:03:16;21.38;;;15.70;;
10309;SDS011;5200;43.236;27.986;2022-12-15T09:05:42;20.67;;;16.25;;
10309;SDS011;5200;43.236;27.986;2022-12-15T09:08:09;16.88;;;13.15;;
10309;SDS011;5200;43.236;27.986;2022-12-15T09:10:38;18.15;;;14.50;;
10309;SDS011;5200;43.236;27.986;2022-12-15T09:13:06;21.25;;;13.85;;
10309;SDS011;5200;43.236;27.986;2022-12-15T09:15:34;14.43;;;12.45;;
10309;SDS011;5200;43.236;27.986;2022-12-15T09:18:01;10.32;;;8.63;;
10309;SDS011;5200;43.236;27.986;2022-12-15T09:20:29;8.10;;;7.28;;
10309;SDS011;5200;43.236;27.986;2022-12-15T09:22:56;7.65;;;6.10;;
10309;SDS011;5200;43.236;27.986;2022-12-15T09:25:23;6.25;;;5.65;;
10309;SDS011;5200;43.236;27.986;2022-12-15T09:27:50;5.45;;;4.22;;
10309;SDS011;5200;43.236;27.986;2022-12-15T09:30:17;6.45;;;3.92;;
10309;SDS011;5200;43.236;27.986;2022-12-15T09:32:45;4.32;;;3.88;;
10309;SDS011;5200;43.236;27.986;2022-12-15T09:35:12;5.70;;;4.50;;
10309;SDS011;5200;43.236;27.986;2022-12-15T09:37:41;3.55;;;3.25;;
10309;SDS011;5200;43.236;27.986;2022-12-15T09:40:09;10.98;;;3.80;;
10309;SDS011;5200;43.236;27.986;2022-12-15T09:42:38;4.75;;;4.25;;
10309;SDS011;5200;43.236;27.986;2022-12-15T09:45:06;9.43;;;6.15;;
10309;SDS011;5200;43.236;27.986;2022-12-15T09:47:41;4.15;;;3.75;;
10309;SDS011;5200;43.236;27.986;2022-12-15T09:50:16;7.00;;;4.45;;
10309;SDS011;5200;43.236;27.986;2022-12-15T09:52:48;5.20;;;4.70;;
10309;SDS011;5200;43.236;27.986;2022-12-15T09:55:19;5.47;;;4.70;;
10309;SDS011;5200;43.236;27.986;2022-12-15T09:57:49;5.97;;;4.63;;
10309;SDS011;5200;43.236;27.986;2022-12-15T10:00:19;4.38;;;3.10;;
10309;SDS011;5200;43.236;27.986;2022-12-15T10:03:11;4.78;;;3.45;;
10309;SDS011;5200;43.236;27.986;2022-12-15T10:06:06;3.50;;;2.90;;
10309;SDS011;5200;43.236;27.986;2022-12-15T10:08:36;3.58;;;3.03;;
10309;SDS011;5200;43.236;27.986;2022-12-15T10:11:12;4.00;;;3.60;;
10309;SDS011;5200;43.236;27.986;2022-12-15T10:13:46;3.20;;;2.90;;
10309;SDS011;5200;43.236;27.986;2022-12-15T10:16:20;3.97;;;3.45;;
10309;SDS011;5200;43.236;27.986;2022-12-15T10:18:53;3.20;;;2.90;;
10309;SDS011;5200;43.236;27.986;2022-12-15T10:21:35;4.00;;;2.92;;
10309;SDS011;5200;43.236;27.986;2022-12-15T10:24:11;4.20;;;3.15;;
10309;SDS011;5200;43.236;27.986;2022-12-15T10:26:41;4.03;;;3.63;;
10309;SDS011;5200;43.236;27.986;2022-12-15T10:29:16;4.38;;;3.97;;
10309;SDS011;5200;43.236;27.986;2022-12-15T10:31:59;4.97;;;4.15;;
10309;SDS011;5200;43.236;27.986;2022-12-15T10:34:31;4.75;;;4.32;;
10309;SDS011;5200;43.236;27.986;2022-12-15T10:37:01;5.30;;;4.78;;
10309;SDS011;5200;43.236;27.986;2022-12-15T10:39:35;5.88;;;4.82;;
10309;SDS011;5200;43.236;27.986;2022-12-15T10:42:11;5.82;;;5.22;;
10309;SDS011;5200;43.236;27.986;2022-12-15T10:44:40;5.55;;;4.82;;
10309;SDS011;5200;43.236;27.986;2022-12-15T10:47:09;6.97;;;5.20;;
10309;SDS011;5200;43.236;27.986;2022-12-15T10:49:40;6.75;;;5.40;;
10309;SDS011;5200;43.236;27.986;2022-12-15T10:52:13;7.68;;;4.90;;
10309;SDS011;5200;43.236;27.986;2022-12-15T10:54:45;16.98;;;10.35;;
10309;SDS011;5200;43.236;27.986;2022-12-15T10:57:14;8.57;;;4.65;;
10309;SDS011;5200;43.236;27.986;2022-12-15T10:59:42;6.72;;;5.45;;
10309;SDS011;5200;43.236;27.986;2022-12-15T11:02:26;8.68;;;5.85;;
10309;SDS011;5200;43.236;27.986;2022-12-15T11:04:57;8.30;;;5.88;;
10309;SDS011;5200;43.236;27.986;2022-12-15T11:07:29;4.40;;;3.72;;
10309;SDS011;5200;43.236;27.986;2022-12-15T11:10:01;9.15;;;6.57;;
10309;SDS011;5200;43.236;27.986;2022-12-15T11:12:38;4.05;;;3.75;;
10309;SDS011;5200;43.236;27.986;2022-12-15T11:18:05;4.40;;;3.60;;
10309;SDS011;5200;43.236;27.986;2022-12-15T11:20:39;4.10;;;3.78;;
10309;SDS011;5200;43.236;27.986;2022-12-15T11:23:12;4.32;;;3.35;;
10309;SDS011;5200;43.236;27.986;2022-12-15T11:25:45;3.97;;;3.58;;
10309;SDS011;5200;43.236;27.986;2022-12-15T11:28:18;5.15;;;4.30;;
10309;SDS011;5200;43.236;27.986;2022-12-15T11:30:51;4.03;;;3.63;;
10309;SDS011;5200;43.236;27.986;2022-12-15T11:33:23;4.95;;;4.32;;
10309;SDS011;5200;43.236;27.986;2022-12-15T11:35:54;4.40;;;3.65;;
10309;SDS011;5200;43.236;27.986;2022-12-15T11:38:36;4.35;;;3.50;;
10309;SDS011;5200;43.236;27.986;2022-12-15T11:41:11;5.10;;;3.65;;
10309;SDS011;5200;43.236;27.986;2022-12-15T11:43:51;4.05;;;3.58;;
10309;SDS011;5200;43.236;27.986;2022-12-15T11:46:31;4.43;;;3.80;;
10309;SDS011;5200;43.236;27.986;2022-12-15T11:49:10;4.03;;;3.63;;
10309;SDS011;5200;43.236;27.986;2022-12-15T11:51:57;5.35;;;3.38;;
10309;SDS011;5200;43.236;27.986;2022-12-15T11:54:35;4.65;;;4.22;;
10309;SDS011;5200;43.236;27.986;2022-12-15T11:57:14;4.57;;;4.18;;
10309;SDS011;5200;43.236;27.986;2022-12-15T12:00:04;4.25;;;3.63;;
10309;SDS011;5200;43.236;27.986;2022-12-15T12:05:28;4.80;;;4.15;;
10309;SDS011;5200;43.236;27.986;2022-12-15T12:08:05;4.80;;;4.30;;
10309;SDS011;5200;43.236;27.986;2022-12-15T12:10:46;4.65;;;4.10;;
10309;SDS011;5200;43.236;27.986;2022-12-15T12:13:25;5.18;;;4.68;;
10309;SDS011;5200;43.236;27.986;2022-12-15T12:15:57;5.57;;;4.57;;
10309;SDS011;5200;43.236;27.986;2022-12-15T12:18:30;4.45;;;3.90;;
10309;SDS011;5200;43.236;27.986;2022-12-15T12:21:02;4.55;;;4.15;;
10309;SDS011;5200;43.236;27.986;2022-12-15T12:23:35;4.28;;;3.75;;
10309;SDS011;5200;43.236;27.986;2022-12-15T12:26:09;4.68;;;4.18;;
10309;SDS011;5200;43.236;27.986;2022-12-15T12:28:44;4.78;;;4.13;;
10309;SDS011;5200;43.236;27.986;2022-12-15T12:31:16;5.47;;;4.50;;
10309;SDS011;5200;43.236;27.986;2022-12-15T12:33:52;5.25;;;4.75;;
10309;SDS011;5200;43.236;27.986;2022-12-15T12:36:26;4.30;;;3.90;;
10309;SDS011;5200;43.236;27.986;2022-12-15T12:38:55;4.35;;;3.95;;
10309;SDS011;5200;43.236;27.986;2022-12-15T12:41:29;4.43;;;4.10;;
10309;SDS011;5200;43.236;27.986;2022-12-15T12:44:03;6.78;;;4.57;;
10309;SDS011;5200;43.236;27.986;2022-12-15T12:46:38;5.63;;;4.20;;
10309;SDS011;5200;43.236;27.986;2022-12-15T12:49:11;4.68;;;4.28;;
10309;SDS011;5200;43.236;27.986;2022-12-15T12:51:48;4.75;;;4.35;;
10309;SDS011;5200;43.236;27.986;2022-12-15T13:00:17;7.13;;;5.90;;
10309;SDS011;5200;43.236;27.986;2022-12-15T13:02:47;7.55;;;6.68;;
10309;SDS011;5200;43.236;27.986;2022-12-15T13:05:24;5.95;;;5.35;;
10309;SDS011;5200;43.236;27.986;2022-12-15T13:08:15;6.55;;;5.53;;
10309;SDS011;5200;43.236;27.986;2022-12-15T13:14:24;8.32;;;6.32;;
10309;SDS011;5200;43.236;27.986;2022-12-15T13:17:03;9.07;;;7.13;;
10309;SDS011;5200;43.236;27.986;2022-12-15T13:22:48;7.82;;;6.82;;
10309;SDS011;5200;43.236;27.986;2022-12-15T13:25:25;9.75;;;7.10;;
10309;SDS011;5200;43.236;27.986;2022-12-15T13:28:17;8.82;;;6.63;;
10309;SDS011;5200;43.236;27.986;2022-12-15T13:34:18;10.00;;;7.90;;
10309;SDS011;5200;43.236;27.986;2022-12-15T13:36:57;7.70;;;6.80;;
10309;SDS011;5200;43.236;27.986;2022-12-15T13:42:28;7.70;;;6.53;;
10309;SDS011;5200;43.236;27.986;2022-12-15T13:45:04;9.40;;;7.80;;
10309;SDS011;5200;43.236;27.986;2022-12-15T13:47:50;7.95;;;7.15;;
10309;SDS011;5200;43.236;27.986;2022-12-15T13:50:27;6.80;;;5.95;;
10309;SDS011;5200;43.236;27.986;2022-12-15T13:52:57;7.15;;;5.97;;
10309;SDS011;5200;43.236;27.986;2022-12-15T13:55:31;6.82;;;5.78;;
10309;SDS011;5200;43.236;27.986;2022-12-15T13:58:03;5.57;;;5.05;;
10309;SDS011;5200;43.236;27.986;2022-12-15T14:00:33;7.55;;;5.60;;
10309;SDS011;5200;43.236;27.986;2022-12-15T14:03:04;6.38;;;5.15;;
10309;SDS011;5200;43.236;27.986;2022-12-15T14:05:33;6.50;;;5.90;;
10309;SDS011;5200;43.236;27.986;2022-12-15T14:08:04;6.65;;;5.72;;
10309;SDS011;5200;43.236;27.986;2022-12-15T14:10:39;6.18;;;5.57;;
10309;SDS011;5200;43.236;27.986;2022-12-15T14:13:08;7.10;;;6.40;;
10309;SDS011;5200;43.236;27.986;2022-12-15T14:15:39;6.78;;;6.07;;
10309;SDS011;5200;43.236;27.986;2022-12-15T14:18:20;6.53;;;5.88;;
10309;SDS011;5200;43.236;27.986;2022-12-15T14:20:50;7.05;;;5.82;;
10309;SDS011;5200;43.236;27.986;2022-12-15T14:23:18;7.25;;;6.47;;
10309;SDS011;5200;43.236;27.986;2022-12-15T14:26:00;7.15;;;6.40;;
10309;SDS011;5200;43.236;27.986;2022-12-15T14:28:30;9.18;;;6.85;;
10309;SDS011;5200;43.236;27.986;2022-12-15T14:30:59;7.07;;;6.38;;
10309;SDS011;5200;43.236;27.986;2022-12-15T14:33:30;6.88;;;6.13;;
10309;SDS011;5200;43.236;27.986;2022-12-15T14:36:03;8.40;;;7.00;;
10309;SDS011;5200;43.236;27.986;2022-12-15T14:38:36;10.32;;;7.18;;
10309;SDS011;5200;43.236;27.986;2022-12-15T14:41:11;8.90;;;6.70;;
10309;SDS011;5200;43.236;27.986;2022-12-15T14:43:45;8.15;;;6.28;;
10309;SDS011;5200;43.236;27.986;2022-12-15T14:46:15;7.15;;;6.25;;
10309;SDS011;5200;43.236;27.986;2022-12-15T14:48:48;7.97;;;6.80;;
10309;SDS011;5200;43.236;27.986;2022-12-15T14:51:20;8.00;;;6.78;;
10309;SDS011;5200;43.236;27.986;2022-12-15T14:53:49;8.20;;;6.43;;
10309;SDS011;5200;43.236;27.986;2022-12-15T14:56:22;6.70;;;6.10;;
10309;SDS011;5200;43.236;27.986;2022-12-15T14:58:54;7.50;;;6.05;;
10309;SDS011;5200;43.236;27.986;2022-12-15T15:01:24;6.43;;;5.90;;
10309;SDS011;5200;43.236;27.986;2022-12-15T15:04:00;7.68;;;6.22;;
10309;SDS011;5200;43.236;27.986;2022-12-15T15:06:30;7.18;;;5.57;;
10309;SDS011;5200;43.236;27.986;2022-12-15T15:09:03;6.15;;;5.57;;
10309;SDS011;5200;43.236;27.986;2022-12-15T15:11:39;8.27;;;6.50;;
10309;SDS011;5200;43.236;27.986;2022-12-15T15:14:10;6.82;;;6.13;;
10309;SDS011;5200;43.236;27.986;2022-12-15T15:16:40;6.80;;;5.95;;
10309;SDS011;5200;43.236;27.986;2022-12-15T15:19:10;6.75;;;6.00;;
10309;SDS011;5200;43.236;27.986;2022-12-15T15:21:46;7.75;;;5.25;;
10309;SDS011;5200;43.236;27.986;2022-12-15T15:24:20;7.30;;;5.90;;
10309;SDS011;5200;43.236;27.986;2022-12-15T15:26:50;8.20;;;6.15;;
10309;SDS011;5200;43.236;27.986;2022-12-15T15:29:31;6.32;;;5.45;;
10309;SDS011;5200;43.236;27.986;2022-12-15T15:32:04;6.25;;;5.47;;
10309;SDS011;5200;43.236;27.986;2022-12-15T15:34:32;21.67;;;17.52;;
10309;SDS011;5200;43.236;27.986;2022-12-15T15:37:01;6.03;;;5.43;;
10309;SDS011;5200;43.236;27.986;2022-12-15T15:39:30;7.40;;;6.15;;
10309;SDS011;5200;43.236;27.986;2022-12-15T15:42:02;7.80;;;5.75;;
10309;SDS011;5200;43.236;27.986;2022-12-15T15:44:30;6.88;;;5.55;;
10309;SDS011;5200;43.236;27.986;2022-12-15T15:46:57;7.30;;;5.95;;